Time;durP1;ratioP1;P1;durP2;ratioP2;P2;SDS_P1;SDS_P2;PMS_P1;PMS_P2;Temp;Humidity;BMP_temperature;BMP_pressure;BME280_temperature;BME280_humidity;BME280_pressure;Samples;Min_cycle;Max_cycle;Signal;HPM_P1;HPM_P2
2021/08/05 00:02:19;;;;;;;;;;;17.40;78.30;;;;;;5049146;28;20418;-75
2021/08/05 00:04:45;;;;;;;;;;;17.40;78.60;;;;;;5042874;28;19960;-75
2021/08/05 00:07:12;;;;;;;;;;;17.40;78.60;;;;;;5047492;28;20020;-75
2021/08/05 00:09:39;;;;;;;;;;;17.40;78.70;;;;;;5051808;28;19924;-76
2021/08/05 00:12:06;;;;;;;;;;;17.40;78.70;;;;;;5053027;28;19924;-75
2021/08/05 00:14:32;;;;;;;;;;;17.40;78.60;;;;;;5053283;28;19925;-75
2021/08/05 00:16:58;;;;;;;;;;;17.40;78.60;;;;;;5053038;28;19936;-75
2021/08/05 00:19:25;;;;;;;;;;;17.40;78.50;;;;;;5051493;28;19986;-75
2021/08/05 00:21:52;;;;;;;;;;;17.40;78.50;;;;;;5052292;28;19976;-75
2021/08/05 00:24:18;;;;;;;;;;;17.40;78.70;;;;;;5052559;28;19932;-75
2021/08/05 00:26:45;;;;;;;;;;;17.40;78.80;;;;;;5052900;28;19924;-75
2021/08/05 00:29:11;;;;;;;;;;;17.40;78.90;;;;;;5052567;28;19925;-75
2021/08/05 00:31:38;;;;;;;;;;;17.40;79.00;;;;;;5052422;28;20388;-75
2021/08/05 00:34:04;;;;;;;;;;;17.40;79.00;;;;;;5052863;28;19933;-75
2021/08/05 00:36:30;;;;;;;;;;;17.40;79.00;;;;;;5052827;28;19924;-75
2021/08/05 00:38:56;;;;;;;;;;;17.50;79.00;;;;;;5052470;28;19928;-75
2021/08/05 00:41:23;;;;;;;;;;;17.40;78.90;;;;;;5052640;28;19970;-75
2021/08/05 00:43:49;;;;;;;;;;;17.50;79.00;;;;;;5068183;28;19925;-75
2021/08/05 00:46:15;;;;;;;;;;;17.50;79.10;;;;;;5052481;28;20598;-75
2021/08/05 00:48:41;;;;;;;;;;;17.50;79.20;;;;;;5052789;28;19925;-75
2021/08/05 00:51:07;;;;;;;;;;;17.50;79.10;;;;;;5052808;28;20322;-75
2021/08/05 00:53:34;;;;;;;;;;;17.40;79.20;;;;;;5052207;28;19928;-75
2021/08/05 00:56:00;;;;;;;;;;;17.40;79.40;;;;;;5052805;28;19998;-75
2021/08/05 00:58:26;;;;;;;;;;;17.30;79.80;;;;;;5052699;28;20016;-75
2021/08/05 01:00:56;;;;;;;;;;;17.20;80.00;;;;;;5052748;28;19924;-75
2021/08/05 01:03:28;;;;;;;;;;;17.10;80.70;;;;;;5052471;28;19925;-75
2021/08/05 01:06:07;;;;;;;;;;;17.00;81.10;;;;;;5052619;28;19939;-75
2021/08/05 01:08:38;;;;;;;;;;;17.00;81.50;;;;;;5046601;28;19974;-75
2021/08/05 01:11:10;;;;;;;;;;;17.00;81.70;;;;;;5052497;28;19924;-75
2021/08/05 01:13:48;;;;;;;;;;;17.00;81.80;;;;;;5052560;28;19925;-75
2021/08/05 01:16:16;;;;;;;;;;;17.00;81.70;;;;;;5034708;28;19925;-75
2021/08/05 01:18:44;;;;;;;;;;;17.00;81.70;;;;;;5052286;28;19994;-75
2021/08/05 01:21:19;;;;;;;;;;;17.00;81.70;;;;;;5052088;28;19924;-75
2021/08/05 01:23:45;;;;;;;;;;;17.00;81.70;;;;;;5067789;28;19925;-75
2021/08/05 01:26:15;;;;;;;;;;;17.00;81.80;;;;;;5051953;28;20388;-75
2021/08/05 01:28:43;;;;;;;;;;;17.00;81.70;;;;;;5052333;28;19924;-75
2021/08/05 01:31:09;;;;;;;;;;;17.10;81.80;;;;;;5051916;28;19925;-75
2021/08/05 01:33:37;;;;;;;;;;;17.10;81.60;;;;;;5054290;28;20447;-75
2021/08/05 01:36:04;;;;;;;;;;;17.00;81.50;;;;;;5055414;28;20452;-75
2021/08/05 01:38:34;;;;;;;;;;;17.00;81.50;;;;;;5055994;28;19970;-75
2021/08/05 01:41:04;;;;;;;;;;;17.00;81.50;;;;;;5055904;28;19931;-75
2021/08/05 01:43:31;;;;;;;;;;;16.90;81.60;;;;;;5055380;28;19971;-75
2021/08/05 01:45:58;;;;;;;;;;;16.90;81.90;;;;;;5055765;28;19925;-75
2021/08/05 01:48:25;;;;;;;;;;;16.80;82.00;;;;;;5055491;28;19931;-75
2021/08/05 01:50:51;;;;;;;;;;;16.80;82.10;;;;;;5055766;28;20410;-75
2021/08/05 01:53:18;;;;;;;;;;;16.80;82.30;;;;;;5055621;28;19929;-75
2021/08/05 01:55:46;;;;;;;;;;;16.70;82.50;;;;;;5055675;28;20015;-75
2021/08/05 01:58:12;;;;;;;;;;;16.70;82.50;;;;;;5055708;28;19932;-75
2021/08/05 02:00:38;;;;;;;;;;;16.70;82.70;;;;;;5054364;28;20011;-75
2021/08/05 02:03:05;;;;;;;;;;;16.70;83.00;;;;;;5055664;28;19931;-75
2021/08/05 02:05:50;;;;;;;;;;;16.60;83.20;;;;;;5055142;28;19925;-75
2021/08/05 02:08:19;;;;;;;;;;;16.60;83.30;;;;;;5049544;28;19935;-75
2021/08/05 02:10:46;;;;;;;;;;;16.70;83.80;;;;;;5055138;28;20291;-75
2021/08/05 02:13:14;;;;;;;;;;;16.70;84.00;;;;;;5055497;28;19925;-75
2021/08/05 02:15:46;;;;;;;;;;;16.70;84.50;;;;;;5055369;28;19943;-75
2021/08/05 02:18:13;;;;;;;;;;;16.70;84.70;;;;;;5055209;28;19964;-75
2021/08/05 02:20:41;;;;;;;;;;;16.70;85.00;;;;;;5055069;28;20047;-75
2021/08/05 02:23:09;;;;;;;;;;;16.60;85.50;;;;;;5054594;28;19924;-75
2021/08/05 02:25:35;;;;;;;;;;;16.60;86.10;;;;;;5055231;28;19982;-75
2021/08/05 02:28:01;;;;;;;;;;;16.60;86.50;;;;;;5054915;28;19975;-75
2021/08/05 02:30:28;;;;;;;;;;;16.60;87.20;;;;;;5055110;28;20011;-75
2021/08/05 02:32:54;;;;;;;;;;;16.60;87.80;;;;;;5036053;28;19929;-75
2021/08/05 02:35:20;;;;;;;;;;;16.60;88.20;;;;;;5054422;28;19925;-75
2021/08/05 02:37:47;;;;;;;;;;;16.50;88.60;;;;;;5054962;28;19932;-75
2021/08/05 02:40:13;;;;;;;;;;;16.50;88.70;;;;;;5070094;28;19974;-75
2021/08/05 02:42:40;;;;;;;;;;;16.40;89.00;;;;;;5054767;28;19975;-75
2021/08/05 02:45:07;;;;;;;;;;;16.50;89.50;;;;;;5036211;28;20376;-75
2021/08/05 02:47:33;;;;;;;;;;;16.40;89.70;;;;;;5054842;28;20408;-75
2021/08/05 02:50:01;;;;;;;;;;;16.40;90.00;;;;;;5054268;28;19971;-75
2021/08/05 02:52:27;;;;;;;;;;;16.40;90.00;;;;;;5054605;28;20432;-75
2021/08/05 02:54:54;;;;;;;;;;;16.50;90.00;;;;;;5054846;28;20011;-75
2021/08/05 02:57:21;;;;;;;;;;;16.50;89.70;;;;;;5054250;28;19950;-75
2021/08/05 02:59:48;;;;;;;;;;;16.60;89.40;;;;;;5058144;28;19951;-75
2021/08/05 03:02:15;;;;;;;;;;;16.70;89.20;;;;;;5034476;28;19929;-75
2021/08/05 03:04:41;;;;;;;;;;;16.80;88.90;;;;;;5034189;28;20004;-75
2021/08/05 03:07:08;;;;;;;;;;;16.80;88.60;;;;;;5033921;28;20414;-75
2021/08/05 03:09:34;;;;;;;;;;;16.90;88.60;;;;;;5033699;28;19925;-75
2021/08/05 03:12:01;;;;;;;;;;;16.90;88.40;;;;;;5034427;28;20392;-75
2021/08/05 03:14:27;;;;;;;;;;;16.90;88.20;;;;;;5034168;28;20417;-75
2021/08/05 03:16:53;;;;;;;;;;;16.90;87.90;;;;;;5033807;28;19963;-75
2021/08/05 03:19:19;;;;;;;;;;;17.00;87.80;;;;;;5034117;28;19951;-75
2021/08/05 03:21:45;;;;;;;;;;;17.00;87.70;;;;;;5036750;28;19925;-75
2021/08/05 03:24:12;;;;;;;;;;;17.00;87.70;;;;;;5037268;28;19972;-75
2021/08/05 03:26:38;;;;;;;;;;;17.00;87.70;;;;;;5033800;28;19947;-75
2021/08/05 03:29:04;;;;;;;;;;;17.00;87.70;;;;;;5034303;28;19925;-75
2021/08/05 03:31:30;;;;;;;;;;;17.00;87.70;;;;;;5039701;28;20352;-75
2021/08/05 03:33:57;;;;;;;;;;;17.00;87.50;;;;;;5035058;28;20007;-75
2021/08/05 03:36:23;;;;;;;;;;;17.00;87.30;;;;;;5043874;28;19928;-75
2021/08/05 03:38:49;;;;;;;;;;;17.00;87.10;;;;;;5053302;28;20403;-75
2021/08/05 03:41:15;;;;;;;;;;;17.00;87.00;;;;;;5045554;28;19925;-75
2021/08/05 03:43:42;;;;;;;;;;;17.00;86.90;;;;;;5033449;28;19936;-75
2021/08/05 03:46:08;;;;;;;;;;;17.10;86.80;;;;;;5033926;28;19986;-75
2021/08/05 03:48:34;;;;;;;;;;;17.10;86.80;;;;;;5033572;28;19936;-74
2021/08/05 03:51:01;;;;;;;;;;;17.00;86.80;;;;;;5033346;28;19933;-75
2021/08/05 03:53:27;;;;;;;;;;;17.00;86.80;;;;;;5033405;28;19929;-75
2021/08/05 03:55:54;;;;;;;;;;;17.00;86.80;;;;;;5033355;28;19925;-75
2021/08/05 03:58:20;;;;;;;;;;;17.00;86.80;;;;;;5033216;28;19936;-75
2021/08/05 04:00:46;;;;;;;;;;;17.00;86.70;;;;;;5033107;28;19929;-75
2021/08/05 04:03:12;;;;;;;;;;;17.00;86.80;;;;;;5033519;28;20016;-75
2021/08/05 04:05:38;;;;;;;;;;;17.00;86.70;;;;;;5032950;28;19971;-75
2021/08/05 04:08:05;;;;;;;;;;;16.90;86.70;;;;;;5032536;28;20427;-75
2021/08/05 04:10:31;;;;;;;;;;;16.90;86.80;;;;;;5038808;28;19924;-75
2021/08/05 04:13:02;;;;;;;;;;;16.90;86.80;;;;;;5034078;28;20000;-75
2021/08/05 04:15:29;;;;;;;;;;;16.90;86.60;;;;;;5037721;28;19925;-75
2021/08/05 04:17:55;;;;;;;;;;;16.90;86.40;;;;;;5037379;28;20012;-75
2021/08/05 04:20:22;;;;;;;;;;;16.90;86.20;;;;;;5040707;28;20011;-75
2021/08/05 04:22:49;;;;;;;;;;;16.90;86.20;;;;;;5041638;28;20391;-75
2021/08/05 04:25:16;;;;;;;;;;;16.90;86.10;;;;;;5048695;28;19990;-75
2021/08/05 04:27:42;;;;;;;;;;;16.90;86.10;;;;;;5048123;28;20388;-75
2021/08/05 04:30:10;;;;;;;;;;;16.90;85.90;;;;;;5052213;28;19925;-74
2021/08/05 04:32:36;;;;;;;;;;;16.90;85.80;;;;;;5052508;28;19929;-75
2021/08/05 04:35:03;;;;;;;;;;;16.80;85.80;;;;;;5052447;28;19978;-75
2021/08/05 04:37:29;;;;;;;;;;;16.90;85.70;;;;;;5051961;28;19925;-76
2021/08/05 04:39:56;;;;;;;;;;;16.90;85.50;;;;;;5052524;28;19929;-75
2021/08/05 04:42:22;;;;;;;;;;;16.90;85.50;;;;;;5052377;28;19925;-75
2021/08/05 04:44:48;;;;;;;;;;;16.90;85.40;;;;;;5052342;28;20380;-75
2021/08/05 04:47:14;;;;;;;;;;;16.80;85.20;;;;;;5052470;28;19978;-75
2021/08/05 04:49:42;;;;;;;;;;;16.90;85.30;;;;;;5052674;28;20002;-75
2021/08/05 04:52:08;;;;;;;;;;;16.80;85.20;;;;;;5052201;28;19925;-75
2021/08/05 04:54:34;;;;;;;;;;;16.80;85.20;;;;;;5052417;28;20374;-74
2021/08/05 04:57:01;;;;;;;;;;;16.80;85.10;;;;;;5052398;28;19928;-74
2021/08/05 04:59:27;;;;;;;;;;;16.80;85.10;;;;;;5052242;28;20368;-74
2021/08/05 05:01:54;;;;;;;;;;;16.80;85.00;;;;;;5052446;28;19925;-75
2021/08/05 05:04:20;;;;;;;;;;;16.80;85.00;;;;;;5052198;28;19970;-74
2021/08/05 05:06:46;;;;;;;;;;;16.80;85.00;;;;;;5051729;28;20376;-75
2021/08/05 05:09:12;;;;;;;;;;;16.80;84.60;;;;;;5054483;28;19925;-74
2021/08/05 05:11:38;;;;;;;;;;;16.80;84.70;;;;;;5070390;28;20428;-74
2021/08/05 05:14:05;;;;;;;;;;;16.80;84.60;;;;;;5055312;28;20027;-75
2021/08/05 05:16:31;;;;;;;;;;;16.80;84.30;;;;;;5055188;28;19925;-74
2021/08/05 05:18:57;;;;;;;;;;;16.90;84.30;;;;;;5055285;28;19928;-74
2021/08/05 05:21:23;;;;;;;;;;;16.90;84.10;;;;;;5053493;28;20337;-75
2021/08/05 05:23:49;;;;;;;;;;;16.90;83.80;;;;;;5054556;28;19966;-75
2021/08/05 05:26:16;;;;;;;;;;;16.90;83.40;;;;;;5051764;28;19982;-75
2021/08/05 05:28:42;;;;;;;;;;;16.90;83.30;;;;;;5046563;28;20289;-75
2021/08/05 05:31:09;;;;;;;;;;;16.90;83.10;;;;;;5036184;28;20022;-75
2021/08/05 05:33:35;;;;;;;;;;;16.90;83.00;;;;;;5049520;28;19933;-76
2021/08/05 05:36:01;;;;;;;;;;;17.00;82.90;;;;;;5054484;28;19924;-75
2021/08/05 05:38:27;;;;;;;;;;;17.00;82.60;;;;;;5039448;28;20017;-77
2021/08/05 05:40:53;;;;;;;;;;;17.00;82.50;;;;;;5040633;28;20320;-75
2021/08/05 05:43:20;;;;;;;;;;;16.90;82.10;;;;;;5035613;28;19932;-75
2021/08/05 05:45:46;;;;;;;;;;;16.90;82.10;;;;;;5038236;28;19943;-76
2021/08/05 05:48:12;;;;;;;;;;;16.90;82.20;;;;;;5035948;28;20447;-75
2021/08/05 05:50:39;;;;;;;;;;;16.90;82.20;;;;;;5036675;28;19925;-75
2021/08/05 05:53:06;;;;;;;;;;;16.90;81.80;;;;;;5040022;28;20278;-75
2021/08/05 05:55:32;;;;;;;;;;;16.80;81.80;;;;;;5038715;28;19925;-75
2021/08/05 05:57:59;;;;;;;;;;;16.60;82.20;;;;;;5035084;28;20008;-74
2021/08/05 06:00:25;;;;;;;;;;;16.50;83.00;;;;;;5035655;28;19929;-74
2021/08/05 06:02:51;;;;;;;;;;;16.50;83.60;;;;;;5034645;28;19932;-74
2021/08/05 06:05:18;;;;;;;;;;;16.50;83.70;;;;;;5039229;28;19924;-73
2021/08/05 06:07:45;;;;;;;;;;;16.50;83.30;;;;;;5042727;28;19932;-76
2021/08/05 06:10:13;;;;;;;;;;;16.60;83.20;;;;;;5054666;28;19978;-73
2021/08/05 06:12:39;;;;;;;;;;;16.50;82.90;;;;;;5053944;28;19925;-73
2021/08/05 06:15:06;;;;;;;;;;;16.40;83.30;;;;;;5050580;28;20403;-73
2021/08/05 06:17:32;;;;;;;;;;;16.30;83.80;;;;;;5051952;28;20414;-73
2021/08/05 06:19:58;;;;;;;;;;;16.30;84.30;;;;;;5046905;28;19970;-73
2021/08/05 06:22:24;;;;;;;;;;;16.20;84.60;;;;;;5051283;28;19924;-73
2021/08/05 06:24:50;;;;;;;;;;;16.20;85.10;;;;;;5050238;28;20323;-73
2021/08/05 06:27:17;;;;;;;;;;;16.20;85.40;;;;;;5067475;28;20015;-73
2021/08/05 06:29:43;;;;;;;;;;;16.20;85.70;;;;;;5039633;28;19950;-74
2021/08/05 06:32:09;;;;;;;;;;;16.20;86.00;;;;;;5034808;28;19929;-73
2021/08/05 06:34:35;;;;;;;;;;;16.20;86.10;;;;;;5047945;28;20409;-73
2021/08/05 06:37:01;;;;;;;;;;;16.30;86.20;;;;;;5050861;28;20003;-73
2021/08/05 06:39:28;;;;;;;;;;;16.30;85.90;;;;;;5039341;28;19925;-74
2021/08/05 06:41:54;;;;;;;;;;;16.30;85.80;;;;;;5031656;28;19929;-73
2021/08/05 06:44:20;;;;;;;;;;;16.40;86.30;;;;;;5033038;28;19975;-73
2021/08/05 06:46:46;;;;;;;;;;;16.30;86.50;;;;;;5033569;28;19979;-75
2021/08/05 06:49:13;;;;;;;;;;;16.40;86.40;;;;;;5034143;28;19995;-73
2021/08/05 06:51:39;;;;;;;;;;;16.40;86.70;;;;;;5033670;28;19925;-73
2021/08/05 06:54:05;;;;;;;;;;;16.40;86.90;;;;;;5033507;28;19932;-74
2021/08/05 06:56:31;;;;;;;;;;;16.50;86.90;;;;;;5033842;28;20055;-74
2021/08/05 06:58:57;;;;;;;;;;;16.50;87.10;;;;;;5033417;28;20442;-73
2021/08/05 07:01:24;;;;;;;;;;;16.50;87.00;;;;;;5033892;28;20391;-74
2021/08/05 07:03:50;;;;;;;;;;;16.60;87.40;;;;;;5033293;28;19929;-74
2021/08/05 07:06:17;;;;;;;;;;;16.60;87.70;;;;;;5033562;28;20457;-73
2021/08/05 07:08:43;;;;;;;;;;;16.60;87.80;;;;;;5042591;28;20062;-74
2021/08/05 07:11:09;;;;;;;;;;;16.60;88.00;;;;;;5053312;28;20214;-74
2021/08/05 07:13:36;;;;;;;;;;;16.70;88.10;;;;;;5053262;28;19936;-74
2021/08/05 07:16:02;;;;;;;;;;;16.70;87.90;;;;;;5068362;28;19925;-74
2021/08/05 07:18:28;;;;;;;;;;;16.80;87.70;;;;;;5053352;28;19950;-74
2021/08/05 07:20:56;;;;;;;;;;;16.90;87.50;;;;;;5053378;28;20392;-73
2021/08/05 07:23:23;;;;;;;;;;;17.00;87.20;;;;;;5052703;28;19928;-73
2021/08/05 07:25:49;;;;;;;;;;;17.10;87.10;;;;;;5052705;28;19925;-73
2021/08/05 07:28:15;;;;;;;;;;;17.10;86.70;;;;;;5052937;28;19928;-74
2021/08/05 07:30:42;;;;;;;;;;;17.20;86.50;;;;;;5052983;28;19990;-74
2021/08/05 07:33:09;;;;;;;;;;;17.30;86.40;;;;;;5047881;28;20015;-74
2021/08/05 07:35:35;;;;;;;;;;;17.30;86.30;;;;;;5053114;28;20289;-73
2021/08/05 07:38:01;;;;;;;;;;;17.30;86.30;;;;;;5052809;28;20368;-73
2021/08/05 07:40:27;;;;;;;;;;;17.30;86.40;;;;;;5052814;28;20280;-73
2021/08/05 07:42:54;;;;;;;;;;;17.30;86.80;;;;;;5052841;28;20047;-74
2021/08/05 07:45:20;;;;;;;;;;;17.30;86.60;;;;;;5052696;28;19925;-74
2021/08/05 07:47:46;;;;;;;;;;;17.30;87.00;;;;;;5052504;28;20388;-73
2021/08/05 07:50:14;;;;;;;;;;;17.30;86.90;;;;;;5052821;28;19924;-74
2021/08/05 07:52:41;;;;;;;;;;;17.30;87.00;;;;;;5052705;28;20308;-74
2021/08/05 07:55:08;;;;;;;;;;;17.30;87.10;;;;;;5052364;28;19931;-74
2021/08/05 07:57:35;;;;;;;;;;;17.30;87.30;;;;;;5052459;28;19932;-73
2021/08/05 08:00:02;;;;;;;;;;;17.30;87.70;;;;;;5034378;28;20399;-74
2021/08/05 08:02:28;;;;;;;;;;;17.30;88.00;;;;;;5052529;28;19924;-73
2021/08/05 08:04:54;;;;;;;;;;;17.40;87.90;;;;;;5052569;28;19936;-74
2021/08/05 08:07:20;;;;;;;;;;;17.50;87.80;;;;;;5045726;28;19974;-74
2021/08/05 08:09:47;;;;;;;;;;;17.50;87.90;;;;;;5052302;28;19933;-74
2021/08/05 08:12:13;;;;;;;;;;;17.50;87.60;;;;;;5052141;28;19929;-74
2021/08/05 08:14:39;;;;;;;;;;;17.60;87.60;;;;;;5051900;28;19978;-73
2021/08/05 08:17:05;;;;;;;;;;;17.60;87.50;;;;;;5052460;28;19925;-73
2021/08/05 08:19:32;;;;;;;;;;;17.70;87.20;;;;;;5052224;28;20443;-73
2021/08/05 08:22:00;;;;;;;;;;;17.70;86.70;;;;;;5051659;28;20303;-74
2021/08/05 08:24:27;;;;;;;;;;;17.80;86.60;;;;;;5052320;28;19929;-73
2021/08/05 08:26:53;;;;;;;;;;;17.80;86.60;;;;;;5051972;28;19925;-73
2021/08/05 08:29:19;;;;;;;;;;;17.90;86.60;;;;;;5034141;28;19967;-73
2021/08/05 08:31:48;;;;;;;;;;;17.90;86.40;;;;;;5046639;28;19978;-73
2021/08/05 08:34:14;;;;;;;;;;;17.90;86.20;;;;;;5052160;28;20007;-73
2021/08/05 08:36:42;;;;;;;;;;;17.90;86.20;;;;;;5051794;28;20011;-73
2021/08/05 08:39:08;;;;;;;;;;;18.00;86.10;;;;;;5052247;28;19925;-74
2021/08/05 08:41:36;;;;;;;;;;;18.10;85.80;;;;;;5051893;28;19929;-73
2021/08/05 08:44:03;;;;;;;;;;;18.10;85.20;;;;;;5051101;28;19925;-73
2021/08/05 08:46:34;;;;;;;;;;;18.10;84.80;;;;;;5051861;28;19925;-73
2021/08/05 08:49:01;;;;;;;;;;;18.10;84.80;;;;;;5051825;28;19925;-73
2021/08/05 08:51:28;;;;;;;;;;;18.10;84.00;;;;;;5051877;28;19936;-74
2021/08/05 08:53:55;;;;;;;;;;;18.10;83.60;;;;;;5051931;28;19925;-73
2021/08/05 08:56:22;;;;;;;;;;;18.10;83.40;;;;;;5051876;28;20423;-73
2021/08/05 08:58:49;;;;;;;;;;;18.10;83.40;;;;;;5051868;28;19932;-73
2021/08/05 09:01:16;;;;;;;;;;;18.10;83.80;;;;;;5051873;28;19925;-74
2021/08/05 09:03:42;;;;;;;;;;;18.20;82.80;;;;;;5040182;28;19936;-74
2021/08/05 09:06:08;;;;;;;;;;;18.20;82.20;;;;;;5023525;28;20017;-74
2021/08/05 09:08:38;;;;;;;;;;;18.20;81.80;;;;;;5044881;28;19925;-74
2021/08/05 09:11:04;;;;;;;;;;;18.20;82.10;;;;;;5051352;28;19924;-74
2021/08/05 09:13:31;;;;;;;;;;;18.30;80.80;;;;;;5051719;28;20403;-74
2021/08/05 09:15:57;;;;;;;;;;;18.30;80.60;;;;;;5045572;28;19929;-74
2021/08/05 09:18:28;;;;;;;;;;;18.30;81.30;;;;;;5050460;28;20024;-73
2021/08/05 09:21:08;;;;;;;;;;;18.30;81.20;;;;;;5051529;28;19990;-73
2021/08/05 09:24:09;;;;;;;;;;;18.30;81.30;;;;;;5051528;28;20034;-74
2021/08/05 09:26:39;;;;;;;;;;;18.40;81.80;;;;;;5043917;28;20334;-73
2021/08/05 09:29:05;;;;;;;;;;;18.40;81.90;;;;;;5051839;28;20015;-74
2021/08/05 09:31:32;;;;;;;;;;;18.40;82.10;;;;;;5045853;28;20301;-74
2021/08/05 09:34:02;;;;;;;;;;;18.30;81.80;;;;;;5051723;28;19925;-73
2021/08/05 09:36:28;;;;;;;;;;;18.20;82.10;;;;;;5051487;28;19932;-74
2021/08/05 09:38:54;;;;;;;;;;;18.20;81.20;;;;;;5051319;28;19929;-74
2021/08/05 09:41:20;;;;;;;;;;;18.30;81.20;;;;;;5066407;28;19924;-74
2021/08/05 09:43:47;;;;;;;;;;;18.30;81.10;;;;;;5051130;28;20423;-74
2021/08/05 09:46:13;;;;;;;;;;;18.30;81.40;;;;;;5051053;28;19924;-73
2021/08/05 09:48:39;;;;;;;;;;;18.20;81.00;;;;;;5051440;28;19990;-73
2021/08/05 09:51:10;;;;;;;;;;;18.20;81.00;;;;;;5051413;28;19924;-73
2021/08/05 09:53:53;;;;;;;;;;;18.20;81.20;;;;;;5051877;28;19933;-73
2021/08/05 09:56:19;;;;;;;;;;;18.20;81.30;;;;;;5055349;28;20015;-73
2021/08/05 09:59:00;;;;;;;;;;;18.20;81.30;;;;;;5054903;28;20008;-76
2021/08/05 10:01:58;;;;;;;;;;;18.20;81.20;;;;;;5038965;28;20059;-73
2021/08/05 10:04:28;;;;;;;;;;;18.20;81.50;;;;;;5054517;28;19978;-74
2021/08/05 10:06:59;;;;;;;;;;;18.20;81.80;;;;;;5049385;28;20336;-73
2021/08/05 10:09:25;;;;;;;;;;;18.30;82.20;;;;;;5053525;28;20296;-73
2021/08/05 10:11:51;;;;;;;;;;;18.20;82.50;;;;;;5054706;28;19925;-73
2021/08/05 10:14:24;;;;;;;;;;;18.10;83.50;;;;;;5054327;28;20058;-73
2021/08/05 10:16:59;;;;;;;;;;;18.20;82.80;;;;;;5040419;28;20449;-80
2021/08/05 10:19:28;;;;;;;;;;;18.20;82.40;;;;;;5054586;28;20019;-73
2021/08/05 10:21:54;;;;;;;;;;;18.40;82.20;;;;;;5054318;28;19924;-73
2021/08/05 10:24:23;;;;;;;;;;;18.50;81.80;;;;;;5054373;28;19978;-77
2021/08/05 10:26:56;;;;;;;;;;;18.60;80.00;;;;;;5053808;28;19929;-73
2021/08/05 10:29:22;;;;;;;;;;;18.60;79.90;;;;;;5054264;28;19924;-73
2021/08/05 10:31:49;;;;;;;;;;;18.60;80.20;;;;;;5048895;28;19925;-73
2021/08/05 10:34:16;;;;;;;;;;;18.70;79.20;;;;;;5054176;28;19929;-72
2021/08/05 10:36:42;;;;;;;;;;;18.70;79.20;;;;;;5054143;28;20311;-72
2021/08/05 10:39:09;;;;;;;;;;;18.60;79.60;;;;;;5053902;28;19947;-73
2021/08/05 10:41:35;;;;;;;;;;;18.70;80.00;;;;;;5054229;28;19971;-72
2021/08/05 10:44:02;;;;;;;;;;;18.70;80.00;;;;;;5053683;28;19925;-73
2021/08/05 10:46:35;;;;;;;;;;;18.70;80.00;;;;;;5054231;28;19925;-73
2021/08/05 10:49:05;;;;;;;;;;;18.80;79.70;;;;;;5053248;28;19928;-73
2021/08/05 10:51:35;;;;;;;;;;;18.80;79.90;;;;;;5053880;28;19925;-73
2021/08/05 10:54:02;;;;;;;;;;;18.90;79.50;;;;;;5053434;28;20377;-73
2021/08/05 10:56:30;;;;;;;;;;;18.90;79.70;;;;;;5053665;28;19929;-73
2021/08/05 10:59:04;;;;;;;;;;;18.90;80.10;;;;;;5053272;28;20423;-73
2021/08/05 11:02:08;;;;;;;;;;;18.90;80.20;;;;;;5053592;28;19925;-73
2021/08/05 11:04:35;;;;;;;;;;;18.90;80.30;;;;;;5011334;28;19975;-73
2021/08/05 11:07:19;;;;;;;;;;;19.00;81.00;;;;;;5005069;28;20337;-73
2021/08/05 11:09:46;;;;;;;;;;;19.00;81.20;;;;;;5009152;28;19955;-73
2021/08/05 11:12:31;;;;;;;;;;;19.10;81.30;;;;;;5011342;28;20060;-72
2021/08/05 11:14:57;;;;;;;;;;;19.10;81.60;;;;;;5011131;28;19925;-73
2021/08/05 11:17:23;;;;;;;;;;;19.20;82.20;;;;;;5011104;28;20159;-73
2021/08/05 11:20:09;;;;;;;;;;;19.10;82.20;;;;;;5011144;28;19932;-73
2021/08/05 11:22:41;;;;;;;;;;;19.10;82.90;;;;;;4993939;28;20367;-72
2021/08/05 11:25:07;;;;;;;;;;;19.10;84.20;;;;;;5010943;28;19925;-72
2021/08/05 11:27:33;;;;;;;;;;;19.10;85.00;;;;;;5010985;28;20412;-72
2021/08/05 11:30:00;;;;;;;;;;;19.00;85.30;;;;;;5010680;28;19942;-74
2021/08/05 11:32:26;;;;;;;;;;;18.90;86.10;;;;;;5010956;28;20015;-74
2021/08/05 11:34:53;;;;;;;;;;;18.90;86.80;;;;;;5023076;28;20300;-74
2021/08/05 11:37:19;;;;;;;;;;;18.80;87.10;;;;;;5052955;28;19925;-74
2021/08/05 11:39:49;;;;;;;;;;;18.70;87.70;;;;;;5052850;28;20312;-73
2021/08/05 11:42:19;;;;;;;;;;;18.70;87.50;;;;;;5052425;28;20375;-73
2021/08/05 11:44:46;;;;;;;;;;;18.70;87.30;;;;;;5052655;28;20074;-74
2021/08/05 11:47:14;;;;;;;;;;;18.70;87.10;;;;;;5067879;28;20311;-76
2021/08/05 11:49:50;;;;;;;;;;;18.80;86.80;;;;;;5052722;28;19929;-73
2021/08/05 11:52:21;;;;;;;;;;;18.80;87.10;;;;;;5052389;28;19933;-74
2021/08/05 11:54:51;;;;;;;;;;;18.80;87.40;;;;;;5034453;28;20438;-74
2021/08/05 11:57:18;;;;;;;;;;;18.80;87.70;;;;;;5052583;28;20403;-74
2021/08/05 11:59:54;;;;;;;;;;;18.80;88.60;;;;;;5052754;28;19935;-74
2021/08/05 12:02:22;;;;;;;;;;;18.80;88.80;;;;;;5052229;28;19925;-74
2021/08/05 12:04:49;;;;;;;;;;;18.70;89.30;;;;;;5052337;28;19929;-74
2021/08/05 12:07:18;;;;;;;;;;;18.80;89.60;;;;;;5045611;28;20373;-73
2021/08/05 12:09:50;;;;;;;;;;;18.80;89.80;;;;;;5052372;28;19932;-74
2021/08/05 12:12:16;;;;;;;;;;;18.90;89.70;;;;;;5052383;28;20408;-74
2021/08/05 12:14:53;;;;;;;;;;;18.80;89.10;;;;;;5050106;28;19947;-74
2021/08/05 12:17:29;;;;;;;;;;;18.80;89.50;;;;;;5051340;28;19932;-74
2021/08/05 12:19:56;;;;;;;;;;;18.90;90.00;;;;;;5052216;28;19925;-74
2021/08/05 12:22:29;;;;;;;;;;;18.80;89.90;;;;;;5051960;28;19925;-74
2021/08/05 12:24:56;;;;;;;;;;;18.90;90.00;;;;;;5052079;28;19979;-74
2021/08/05 12:27:22;;;;;;;;;;;18.90;90.00;;;;;;5051988;28;19924;-74
2021/08/05 12:29:55;;;;;;;;;;;18.90;90.10;;;;;;5051908;28;20014;-74
2021/08/05 12:32:21;;;;;;;;;;;18.90;90.00;;;;;;5046772;28;20331;-73
2021/08/05 12:34:48;;;;;;;;;;;19.00;90.00;;;;;;5052359;28;19933;-74
2021/08/05 12:37:14;;;;;;;;;;;19.10;90.00;;;;;;5052152;28;19924;-73
2021/08/05 12:39:41;;;;;;;;;;;19.20;90.10;;;;;;5052274;28;19932;-73
2021/08/05 12:42:08;;;;;;;;;;;19.10;89.70;;;;;;5051922;28;20447;-74
2021/08/05 12:44:35;;;;;;;;;;;19.20;90.00;;;;;;5051913;28;19932;-73
2021/08/05 12:47:03;;;;;;;;;;;19.40;90.40;;;;;;5051992;28;20368;-73
2021/08/05 12:49:37;;;;;;;;;;;19.50;89.40;;;;;;5052266;28;20360;-74
2021/08/05 12:52:04;;;;;;;;;;;19.50;88.50;;;;;;5051772;28;20050;-73
2021/08/05 12:54:32;;;;;;;;;;;19.50;88.70;;;;;;5052343;28;19931;-74
2021/08/05 12:56:59;;;;;;;;;;;19.60;88.50;;;;;;5051808;28;19928;-74
2021/08/05 12:59:40;;;;;;;;;;;19.60;87.20;;;;;;5051732;28;20373;-74
2021/08/05 13:02:07;;;;;;;;;;;19.50;87.80;;;;;;5051519;28;19971;-74
2021/08/05 13:04:35;;;;;;;;;;;19.50;88.40;;;;;;5052167;28;19925;-74
2021/08/05 13:07:02;;;;;;;;;;;19.50;88.20;;;;;;5045640;28;19925;-74
2021/08/05 13:09:31;;;;;;;;;;;19.50;88.00;;;;;;5051383;28;19925;-74
2021/08/05 13:11:58;;;;;;;;;;;19.50;87.80;;;;;;5051661;28;19925;-73
2021/08/05 13:14:25;;;;;;;;;;;19.50;87.80;;;;;;5051768;28;19933;-74
2021/08/05 13:17:02;;;;;;;;;;;19.60;87.60;;;;;;5049523;28;19928;-73
2021/08/05 13:19:28;;;;;;;;;;;19.70;86.90;;;;;;5051616;28;19929;-74
2021/08/05 13:21:55;;;;;;;;;;;19.80;86.40;;;;;;5051216;28;19925;-73
2021/08/05 13:24:26;;;;;;;;;;;20.00;86.00;;;;;;5051750;28;19936;-74
2021/08/05 13:26:55;;;;;;;;;;;20.00;85.30;;;;;;5051072;28;19928;-74
2021/08/05 13:29:40;;;;;;;;;;;20.10;85.00;;;;;;5053189;28;19974;-73
2021/08/05 13:32:10;;;;;;;;;;;20.20;84.60;;;;;;5049911;28;19932;-73
2021/08/05 13:34:36;;;;;;;;;;;20.20;84.60;;;;;;5055679;28;19924;-74
2021/08/05 13:37:03;;;;;;;;;;;20.30;84.60;;;;;;5055105;28;20047;-74
2021/08/05 13:39:46;;;;;;;;;;;20.40;84.20;;;;;;5055293;28;19940;-73
2021/08/05 13:42:13;;;;;;;;;;;20.40;83.60;;;;;;5054604;28;20292;-74
2021/08/05 13:44:40;;;;;;;;;;;20.50;83.00;;;;;;5055343;28;19925;-74
2021/08/05 13:47:06;;;;;;;;;;;20.40;83.10;;;;;;5055195;28;19925;-74
2021/08/05 13:49:32;;;;;;;;;;;20.40;83.40;;;;;;5054988;28;19925;-74
2021/08/05 13:51:59;;;;;;;;;;;20.40;83.30;;;;;;5055307;28;19925;-74
2021/08/05 13:54:25;;;;;;;;;;;20.40;83.90;;;;;;5055188;28;19925;-74
2021/08/05 13:56:51;;;;;;;;;;;20.50;84.20;;;;;;5054864;28;20437;-74
2021/08/05 13:59:17;;;;;;;;;;;20.50;82.40;;;;;;5054988;28;19925;-74
2021/08/05 14:01:43;;;;;;;;;;;20.50;81.30;;;;;;5055088;28;20400;-74
2021/08/05 14:04:10;;;;;;;;;;;20.60;80.40;;;;;;5054595;28;19925;-74
2021/08/05 14:06:36;;;;;;;;;;;20.60;80.90;;;;;;5052076;28;20299;-74
2021/08/05 14:09:02;;;;;;;;;;;20.50;81.60;;;;;;5050531;28;19990;-74
2021/08/05 14:11:29;;;;;;;;;;;20.50;82.50;;;;;;5054325;28;19925;-74
2021/08/05 14:13:55;;;;;;;;;;;20.50;83.20;;;;;;5054694;28;19931;-73
2021/08/05 14:16:21;;;;;;;;;;;20.40;84.10;;;;;;5054440;28;19925;-73
2021/08/05 14:18:47;;;;;;;;;;;20.30;84.90;;;;;;5054693;28;19969;-73
2021/08/05 14:21:14;;;;;;;;;;;20.20;84.90;;;;;;5054233;28;20381;-73